Latest Coastal Weather Observations for Hindmarsh Island

IDS60701

Issued at 4:51 am CDT Friday 24 March 2017 (issued every 10 minutes, with the page automatically refreshed every 10 minutes)

About coastal observations | Map of coastal stations | Coastal observations for SA | Marine services | Other Formats
Station Details ID: 023894 Name: HINDMARSH ISLAND AWS Lat: -35.52 Lon: 138.82 Height: 11.0 m
Data from the previous 72 hours. | See also: Recent months at Hindmarsh Island
Date/Time
CDT
Temp
°C
Wind Pressure Rain since
9am
mm
Weather Cloud Vis
km
Sea
Height
m
Swell
Dir  Spd
kts
Gust
kts
hPa Trend Height
m
Period
s
Dir
24/04:30am 16.5 ENE 6 7 1014.8 - 0.0 - - - - - - -
24/04:00am 16.7 ENE 8 9 1014.7 - 0.0 - - - - - - -
24/03:30am 18.3 SSE 3 5 1015.1 - 0.0 - - - - - - -
24/03:00am 18.8 SSW 4 6 1016.0 - 0.0 - - - - - - -
24/02:30am 18.8 SW 6 7 1016.3 - 0.0 - - - - - - -
24/02:00am 19.1 SW 3 5 1016.4 - 0.0 - - - - - - -
24/01:30am 19.7 NW 3 4 1016.7 - 0.0 - - - - - - -
24/01:00am 19.7 WSW 2 5 1016.7 - 0.0 - - - - - - -
24/12:30am 19.8 SSW 6 8 1016.9 - 0.0 - - - - - - -
24/12:00am 20.1 S 6 7 1017.1 - 0.0 - - - - - - -
 
Date/Time
CDT
Temp
°C
Wind Pressure Rain since
9am
mm
Weather Cloud Vis
km
Sea
Height
m
Swell
Dir  Spd
kts
Gust
kts
hPa Trend Height
m
Period
s
Dir
23/11:30pm 19.8 S 6 7 1017.1 - 0.0 - - - - - - -
23/11:00pm 19.4 SW 6 7 1017.2 - 0.0 - - - - - - -
23/10:30pm 19.5 SW 6 8 1017.1 - 0.0 - - - - - - -
23/10:00pm 19.3 SW 6 7 1017.0 - 0.0 - - - - - - -
23/09:30pm 19.5 SW 7 9 1017.1 - 0.0 - - - - - - -
23/09:00pm 19.4 SW 8 10 1016.5 - 0.0 - - - - - - -
23/08:30pm 19.4 SSW 8 10 1016.5 - 0.0 - - - - - - -
23/08:00pm 19.3 SSW 8 11 1016.3 - 0.0 - - - - - - -
23/07:30pm 19.5 SSW 9 11 1016.2 - 0.0 - - - - - - -
23/07:00pm 19.8 SSW 9 11 1016.0 - 0.0 - - - - - - -
23/06:30pm 20.4 SSW 10 12 1016.3 - 0.0 - - - - - - -
23/06:00pm 21.0 S 11 14 1016.3 - 0.0 - - - - - - -
23/05:30pm 20.8 S 14 16 1016.1 - 0.0 - - - - - - -
23/05:00pm 21.2 S 14 16 1016.1 - 0.0 - - - - - - -
23/04:30pm 21.3 S 13 15 1016.3 - 0.0 - - - - - - -
23/04:00pm 21.9 S 13 15 1016.4 - 0.0 - - - - - - -
23/03:30pm 22.0 S 13 14 1016.3 - 0.0 - - - - - - -
23/03:00pm 21.9 S 13 14 1016.4 - 0.0 - - - - - - -
23/02:30pm 21.7 S 14 16 1016.5 - 0.0 - - - - - - -
23/02:00pm 21.7 SSE 12 15 1016.9 - 0.0 - - - - - - -
23/01:30pm 21.9 SSE 11 13 1017.4 - 0.0 - - - - - - -
23/01:00pm 21.0 SSE 12 14 1017.8 - 0.0 - - - - - - -
23/12:30pm 21.1 SSE 13 14 1018.0 - 0.0 - - - - - - -
23/12:00pm 20.4 SSE 13 15 1018.6 - 0.0 - - - - - - -
23/11:30am 20.5 SSE 13 15 1019.3 - 0.0 - - - - - - -
23/11:00am 20.3 SSE 14 16 1019.0 - 0.0 - - - - - - -
23/10:30am 20.1 SE 13 15 1018.7 - 0.0 - - - - - - -
23/10:00am 19.7 SE 13 16 1018.9 - 0.0 - - - - - - -
23/09:30am 19.3 ESE 13 15 1019.6 - 0.0 - - - - - - -
23/09:00am 18.3 ESE 15 18 1018.8 - 0.0 - - - - - - -
23/08:30am 17.7 ESE 13 16 1018.8 - 0.0 - - - - - - -
23/08:00am 16.8 ESE 9 12 1018.7 - 0.0 - - - - - - -
23/07:30am 16.5 E 9 11 1018.1 - 0.0 - - - - - - -
23/07:00am 17.5 SE 17 21 1017.5 - 0.0 - - - - - - -
23/06:30am 17.7 SE 17 20 1017.5 - 0.0 - - - - - - -
23/06:00am 17.7 SE 17 20 1017.7 - 0.0 - - - - - - -
23/05:30am 18.0 SE 17 20 1017.5 - 0.0 - - - - - - -
23/05:00am 18.2 SE 17 21 1017.6 - 0.0 - - - - - - -
23/04:30am 18.2 SE 17 21 1017.7 - 0.0 - - - - - - -
23/04:00am 18.1 SE 17 21 1017.7 - 0.0 - - - - - - -
23/03:30am 18.2 SE 17 21 1018.0 - 0.0 - - - - - - -
23/03:00am 18.1 SE 18 21 1017.8 - 0.0 - - - - - - -
23/02:30am 18.1 SE 19 22 1017.8 - 0.0 - - - - - - -
23/02:00am 18.1 SE 19 22 1017.7 - 0.0 - - - - - - -
23/01:30am 18.1 SE 20 22 1017.9 - 0.0 - - - - - - -
23/01:00am 18.3 SE 21 24 1018.3 - 0.0 - - - - - - -
23/12:30am 18.5 SE 21 24 1018.3 - 0.0 - - - - - - -
23/12:00am 18.7 SE 20 24 1018.2 - 0.0 - - - - - - -
 
Date/Time
CDT
Temp
°C
Wind Pressure Rain since
9am
mm
Weather Cloud Vis
km
Sea
Height
m
Swell
Dir  Spd
kts
Gust
kts
hPa Trend Height
m
Period
s
Dir
22/11:30pm 18.6 SE 21 25 1018.3 - 0.0 - - - - - - -
22/11:00pm 18.8 SE 21 25 1018.4 - 0.0 - - - - - - -
22/10:30pm 18.5 SSE 20 25 1018.5 - 0.0 - - - - - - -
22/10:00pm 18.6 SSE 20 23 1018.5 - 0.0 - - - - - - -
22/09:30pm 18.6 SSE 19 22 1018.5 - 0.0 - - - - - - -
22/09:00pm 18.5 SSE 18 22 1018.0 - 0.0 - - - - - - -
22/08:30pm 18.5 SSE 20 24 1017.9 - 0.0 - - - - - - -
22/08:00pm 18.7 SSE 20 26 1017.4 - 0.0 - - - - - - -
22/07:30pm 19.0 SSE 21 25 1017.2 - 0.0 - - - - - - -
22/07:00pm 18.9 SSE 21 24 1017.4 - 0.0 - - - - - - -
22/06:30pm 19.0 SSE 21 26 1017.1 - 0.0 - - - - - - -
22/06:00pm 19.1 SSE 21 24 1017.1 - 0.0 - - - - - - -
22/05:30pm 19.2 SSE 21 26 1017.0 - 0.0 - - - - - - -
22/05:00pm 19.1 SSE 23 26 1016.7 - 0.0 - - - - - - -
22/04:30pm 19.4 SSE 21 25 1017.0 - 0.0 - - - - - - -
22/04:00pm 19.7 SSE 22 26 1017.2 - 0.0 - - - - - - -
22/03:30pm 19.8 SSE 22 26 1016.9 - 0.0 - - - - - - -
22/03:00pm 19.8 SSE 23 26 1017.0 - 0.0 - - - - - - -
22/02:30pm 19.6 SSE 21 24 1017.2 - 0.0 - - - - - - -
22/02:00pm 19.7 SSE 22 25 1017.3 - 0.0 - - - - - - -
22/01:30pm 19.7 SSE 21 25 1017.6 - 0.0 - - - - - - -
22/01:00pm 19.4 SSE 22 25 1017.9 - 0.0 - - - - - - -
22/12:30pm 19.4 SSE 21 25 1018.1 - 0.0 - - - - - - -
22/12:00pm 19.3 SSE 21 26 1018.4 - 0.0 - - - - - - -
22/11:30am 19.5 SSE 20 23 1018.6 - 0.0 - - - - - - -
22/11:00am 19.4 SSE 20 24 1018.6 - 0.0 - - - - - - -
22/10:30am 19.6 SE 19 23 1018.4 - 0.0 - - - - - - -
22/10:00am 19.4 SE 20 25 1017.9 - 0.0 - - - - - - -
22/09:30am 19.1 SE 22 26 1017.6 - 0.0 - - - - - - -
22/09:00am 19.3 SE 21 24 1017.2 - 0.2 - - - - - - -
22/08:30am 19.2 SE 19 25 1016.7 - 0.2 - - - - - - -
22/08:00am 19.2 SE 19 22 1016.4 - 0.2 - - - - - - -
22/07:30am 19.2 SE 17 21 1016.3 - 0.2 - - - - - - -
22/07:00am 19.3 SE 20 26 1015.9 - 0.2 - - - - - - -
22/06:30am 19.2 SE 21 25 1015.3 - 0.2 - - - - - - -
22/06:00am 19.2 SE 20 23 1015.3 - 0.2 - - - - - - -
22/05:30am 19.0 SE 22 28 1014.9 - 0.2 - - - - - - -
22/05:00am 19.0 SE 21 26 1014.5 - 0.2 - - - - - - -
22/04:30am 19.1 SE 22 26 1014.6 - 0.2 - - - - - - -
22/04:00am 19.3 SSE 21 27 1014.7 - 0.2 - - - - - - -
22/03:30am 19.3 SSE 18 22 1014.7 - 0.2 - - - - - - -
22/03:00am 19.2 SSE 17 22 1014.7 - 0.2 - - - - - - -
22/02:30am 19.1 SE 18 23 1014.6 - 0.2 - - - - - - -
22/02:00am 19.1 SSE 19 24 1014.4 - 0.2 - - - - - - -
22/01:30am 19.4 SE 18 23 1014.5 - 0.2 - - - - - - -
22/01:00am 19.3 SSE 18 23 1014.3 - 0.2 - - - - - - -
22/12:30am 19.5 SSE 17 20 1014.4 - 0.2 - - - - - - -
22/12:00am 19.5 SSE 19 23 1014.3 - 0.2 - - - - - - -
 
Date/Time
CDT
Temp
°C
Wind Pressure Rain since
9am
mm
Weather Cloud Vis
km
Sea
Height
m
Swell
Dir  Spd
kts
Gust
kts
hPa Trend Height
m
Period
s
Dir
21/11:30pm 19.5 SSE 18 22 1014.2 - 0.2 - - - - - - -
21/11:00pm 19.5 SSE 18 22 1014.1 - 0.2 - - - - - - -
21/10:30pm 19.7 SSE 18 23 1013.7 - 0.2 - - - - - - -
21/10:00pm 19.9 SSE 19 22 1013.3 - 0.2 - - - - - - -
21/09:30pm 20.0 SSE 22 26 1012.8 - 0.2 - - - - - - -
21/09:00pm 20.2 SSE 22 26 1012.3 - 0.2 - - - - - - -
21/08:30pm 20.2 SSE 17 22 1011.6 - 0.2 - - - - - - -
21/08:00pm 20.1 SSE 18 22 1011.5 - 0.2 - - - - - - -
21/07:30pm 20.0 S 16 19 1011.3 - 0.2 - - - - - - -
21/07:00pm 20.2 S 18 21 1011.0 - 0.2 - - - - - - -
21/06:30pm 20.2 S 17 20 1010.9 - 0.2 - - - - - - -
21/06:00pm 21.3 S 15 17 1010.6 - 0.2 - - - - - - -
21/05:30pm 21.3 SSE 17 21 1010.3 - 0.2 - - - - - - -
21/05:00pm 21.8 SSE 18 21 1009.6 - 0.2 - - - - - - -
21/04:30pm 22.2 SSE 20 23 1009.4 - 0.2 - - - - - - -
21/04:00pm 22.4 S 22 25 1009.2 - 0.2 - - - - - - -
21/03:30pm 24.2 SSW 17 21 1009.6 - 0.2 - - - - - - -
21/03:24pm 24.7 SSW 15 21 1009.5 - 0.2 - - - - - - -
21/03:00pm 27.4 S 9 11 1009.6 - 0.2 - - - - - - -
21/02:30pm 26.7 S 6 9 1010.0 - 0.2 - - - - - - -
21/02:00pm 26.6 SSE 8 11 1010.1 - 0.2 - - - - - - -
21/01:30pm 24.7 SE 9 10 1010.4 - 0.2 - - - - - - -
21/01:00pm 22.5 SE 16 19 1010.7 - 0.0 - - - - - - -
21/12:30pm 22.3 SE 21 25 1011.0 - 0.0 - - - - - - -
21/12:00pm 22.9 SE 18 22 1011.5 - 0.0 - - - - - - -
21/11:30am 22.9 ESE 21 25 1011.4 - 0.0 - - - - - - -
21/11:00am 21.9 ESE 20 24 1011.4 - 0.0 - - - - - - -
21/10:30am 22.6 SE 19 25 1011.2 - 0.0 - - - - - - -
21/10:00am 20.9 SE 17 21 1011.3 - 0.0 - - - - - - -
21/09:30am 20.7 SE 18 22 1011.0 - 0.0 - - - - - - -
21/09:00am 20.1 SSE 19 23 1011.0 - 1.0 - - - - - - -
21/08:30am 20.2 S 19 23 1010.9 - 1.0 - - - - - - -
21/08:00am 20.1 S 18 21 1010.4 - 1.0 - - - - - - -
21/07:30am 20.3 SSW 19 24 1010.4 - 1.0 - - - - - - -
21/07:00am 20.5 SW 20 25 1010.1 - 1.0 - - - - - - -
21/06:50am 20.6 SW 15 23 1010.4 - 1.0 - - - - - - -
21/06:30am 20.1 ESE 1 3 1009.2 - 1.0 - - - - - - -
21/06:00am 20.0 ESE 4 5 1008.9 - 1.0 - - - - - - -
21/05:30am 20.3 SE 3 5 1008.7 - 1.0 - - - - - - -
21/05:00am 20.3 ENE 2 3 1008.5 - 1.0 - - - - - - -

Other Formats:

Comma delimited format used in spreadsheet applications
http://www.bom.gov.au/fwo/IDS60701/IDS60701.94677.axf

JavaScript Object Notation format (JSON) in row-major order
http://www.bom.gov.au/fwo/IDS60701/IDS60701.94677.json